createdAt,value
2019-02-03T00:00:45.827Z,959.09
2019-02-03T00:01:45.813Z,959.14
2019-02-03T00:02:45.800Z,959.11
2019-02-03T00:03:45.781Z,959.16
2019-02-03T00:04:45.766Z,959.12
2019-02-03T00:05:45.752Z,959.16
2019-02-03T00:06:45.737Z,959.14
2019-02-03T00:07:45.723Z,959.20
2019-02-03T00:08:45.706Z,959.19
2019-02-03T00:09:45.694Z,959.17
2019-02-03T00:10:45.676Z,959.18
2019-02-03T00:11:45.661Z,959.18
2019-02-03T00:12:45.648Z,959.20
2019-02-03T00:13:45.634Z,959.22
2019-02-03T00:14:45.619Z,959.21
2019-02-03T00:15:45.604Z,959.23
2019-02-03T00:16:45.587Z,959.24
2019-02-03T00:17:45.573Z,959.19
2019-02-03T00:18:45.630Z,959.15
2019-02-03T00:19:45.542Z,959.23
2019-02-03T00:20:45.525Z,959.25
2019-02-03T00:21:45.511Z,959.25
2019-02-03T00:22:45.498Z,959.23
2019-02-03T00:23:45.482Z,959.20
2019-02-03T00:24:45.467Z,959.21
2019-02-03T00:25:45.450Z,959.25
2019-02-03T00:26:45.436Z,959.24
2019-02-03T00:27:45.420Z,959.28
2019-02-03T00:28:45.406Z,959.27
2019-02-03T00:29:45.390Z,959.26
2019-02-03T00:30:45.379Z,959.25
2019-02-03T00:31:45.359Z,959.24
2019-02-03T00:32:45.349Z,959.24
2019-02-03T00:33:45.336Z,959.31
2019-02-03T00:34:45.317Z,959.27
2019-02-03T00:35:45.300Z,959.32
2019-02-03T00:36:45.285Z,959.27
2019-02-03T00:37:45.350Z,959.29
2019-02-03T00:38:45.257Z,959.28
2019-02-03T00:39:45.239Z,959.31
2019-02-03T00:40:45.269Z,959.31
2019-02-03T00:41:45.252Z,959.35
2019-02-03T00:42:45.197Z,959.37
2019-02-03T00:43:45.179Z,959.31
2019-02-03T00:44:45.165Z,959.31
2019-02-03T00:45:45.151Z,959.29
2019-02-03T00:46:45.136Z,959.37
2019-02-03T00:47:45.122Z,959.38
2019-02-03T00:48:45.105Z,959.36
2019-02-03T00:49:45.088Z,959.37
2019-02-03T00:50:45.083Z,959.33
2019-02-03T00:51:45.060Z,959.36
2019-02-03T00:52:45.044Z,959.38
2019-02-03T00:53:45.155Z,959.37
2019-02-03T00:54:45.015Z,959.37
2019-02-03T00:55:44.999Z,959.38
2019-02-03T00:56:44.986Z,959.39
2019-02-03T00:57:44.971Z,959.40
2019-02-03T00:58:44.955Z,959.40
2019-02-03T00:59:45.038Z,959.41
2019-02-03T01:00:44.925Z,959.42
2019-02-03T01:01:44.909Z,959.44
2019-02-03T01:02:44.896Z,959.43
2019-02-03T01:03:44.878Z,959.43
2019-02-03T01:04:44.865Z,959.48
2019-02-03T01:05:44.849Z,959.46
2019-02-03T01:06:44.864Z,959.45
2019-02-03T01:07:44.820Z,959.44
2019-02-03T01:08:44.806Z,959.47
2019-02-03T01:09:44.792Z,959.43
2019-02-03T01:10:44.773Z,959.43
2019-02-03T01:11:44.761Z,959.39
2019-02-03T01:12:44.747Z,959.40
2019-02-03T01:13:44.731Z,959.40
2019-02-03T01:14:44.714Z,959.41
2019-02-03T01:15:44.699Z,959.38
2019-02-03T01:16:44.684Z,959.38
2019-02-03T01:17:44.669Z,959.42
2019-02-03T01:18:44.655Z,959.47
2019-02-03T01:19:44.639Z,959.44
2019-02-03T01:20:44.626Z,959.47
2019-02-03T01:21:44.611Z,959.47
2019-02-03T01:22:44.659Z,959.42
2019-02-03T01:23:44.578Z,959.48
2019-02-03T01:24:44.569Z,959.47
2019-02-03T01:25:44.550Z,959.41
2019-02-03T01:26:44.535Z,959.43
2019-02-03T01:27:44.520Z,959.41
2019-02-03T01:28:44.614Z,959.39
2019-02-03T01:29:44.493Z,959.33
2019-02-03T01:30:44.474Z,959.31
2019-02-03T01:31:44.460Z,959.31
2019-02-03T01:32:44.443Z,959.29
2019-02-03T01:33:44.431Z,959.28
2019-02-03T01:34:44.415Z,959.25
2019-02-03T01:35:44.399Z,959.20
2019-02-03T01:36:44.384Z,959.18
2019-02-03T01:37:44.368Z,959.14
2019-02-03T01:38:44.353Z,959.17
2019-02-03T01:39:44.338Z,959.13
2019-02-03T01:40:44.325Z,959.20
2019-02-03T01:41:44.310Z,959.26
2019-02-03T01:42:44.295Z,959.31
2019-02-03T01:43:44.284Z,959.36
2019-02-03T01:44:44.263Z,959.47
2019-02-03T01:45:44.248Z,959.50
2019-02-03T01:46:44.235Z,959.57
2019-02-03T01:47:44.216Z,959.62
2019-02-03T01:48:44.202Z,959.59
2019-02-03T01:49:44.188Z,959.60
2019-02-03T01:50:44.174Z,959.63
2019-02-03T01:51:44.158Z,959.59
2019-02-03T01:52:44.142Z,959.67
2019-02-03T01:53:44.130Z,959.69
2019-02-03T01:54:44.114Z,959.77
2019-02-03T01:55:44.098Z,959.84
2019-02-03T01:56:44.084Z,959.95
2019-02-03T01:57:44.070Z,960.02
2019-02-03T01:58:44.053Z,960.09
2019-02-03T01:59:44.038Z,960.14
2019-02-03T02:00:44.024Z,960.16
2019-02-03T02:01:44.009Z,960.18
2019-02-03T02:02:44.000Z,960.18
2019-02-03T02:03:43.979Z,960.19
2019-02-03T02:04:43.964Z,960.18
2019-02-03T02:05:43.950Z,960.26
2019-02-03T02:06:43.934Z,960.27
2019-02-03T02:07:51.108Z,960.32
2019-02-03T02:08:43.905Z,960.35
2019-02-03T02:09:43.891Z,960.42
2019-02-03T02:10:43.874Z,960.43
2019-02-03T02:11:43.861Z,960.50
2019-02-03T02:12:43.844Z,960.51
2019-02-03T02:13:43.831Z,960.51
2019-02-03T02:14:43.817Z,960.58
2019-02-03T02:15:43.799Z,960.62
2019-02-03T02:16:43.786Z,960.58
2019-02-03T02:17:43.772Z,960.59
2019-02-03T02:18:43.756Z,960.65
2019-02-03T02:19:43.746Z,960.67
2019-02-03T02:20:43.727Z,960.66
2019-02-03T02:21:43.714Z,960.71
2019-02-03T02:22:43.697Z,960.73
2019-02-03T02:23:43.682Z,960.73
2019-02-03T02:24:43.665Z,960.73
2019-02-03T02:25:43.651Z,960.74
2019-02-03T02:26:43.637Z,960.78
2019-02-03T02:27:43.622Z,960.82
2019-02-03T02:28:43.611Z,960.82
2019-02-03T02:29:43.593Z,960.87
2019-02-03T02:30:43.586Z,960.84
2019-02-03T02:31:43.569Z,960.85
2019-02-03T02:32:43.548Z,960.89
2019-02-03T02:33:43.539Z,960.90
2019-02-03T02:34:43.518Z,960.92
2019-02-03T02:35:43.502Z,960.87
2019-02-03T02:36:43.488Z,960.92
2019-02-03T02:37:43.475Z,960.92
2019-02-03T02:38:43.458Z,960.95
2019-02-03T02:39:43.444Z,960.95
2019-02-03T02:40:43.428Z,960.97
2019-02-03T02:41:43.432Z,960.99
2019-02-03T02:42:43.399Z,960.97
2019-02-03T02:43:43.385Z,960.96
2019-02-03T02:44:43.374Z,960.98
2019-02-03T02:45:43.355Z,960.98
2019-02-03T02:46:43.339Z,961.03
2019-02-03T02:47:43.323Z,961.02
2019-02-03T02:48:43.310Z,961.03
2019-02-03T02:49:43.299Z,961.06
2019-02-03T02:50:43.290Z,961.07
2019-02-03T02:51:43.267Z,961.07
2019-02-03T02:52:43.250Z,961.10
2019-02-03T02:53:43.237Z,961.12
2019-02-03T02:54:43.222Z,961.10
2019-02-03T02:55:43.208Z,961.09
2019-02-03T02:56:43.197Z,961.13
2019-02-03T02:57:43.187Z,961.14
2019-02-03T02:58:43.164Z,961.14
2019-02-03T02:59:43.149Z,961.17
2019-02-03T03:00:43.135Z,961.22
2019-02-03T03:01:43.120Z,961.22
2019-02-03T03:02:43.104Z,961.24
2019-02-03T03:03:43.088Z,961.25
2019-02-03T03:04:43.074Z,961.27
2019-02-03T03:05:43.070Z,961.29
2019-02-03T03:06:43.046Z,961.30
2019-02-03T03:07:43.033Z,961.31
2019-02-03T03:08:43.015Z,961.34
2019-02-03T03:09:43.000Z,961.30
2019-02-03T03:10:42.985Z,961.32
2019-02-03T03:11:42.971Z,961.28
2019-02-03T03:12:42.954Z,961.27
2019-02-03T03:13:42.941Z,961.30
2019-02-03T03:14:42.927Z,961.32
2019-02-03T03:15:42.910Z,961.35
2019-02-03T03:16:42.896Z,961.33
2019-02-03T03:17:42.881Z,961.39
2019-02-03T03:18:42.867Z,961.40
2019-02-03T03:19:42.852Z,961.37
2019-02-03T03:20:42.836Z,961.37
2019-02-03T03:21:42.824Z,961.37
2019-02-03T03:22:42.806Z,961.38
2019-02-03T03:23:42.791Z,961.41
2019-02-03T03:24:42.777Z,961.42
2019-02-03T03:25:42.765Z,961.43
2019-02-03T03:26:42.770Z,961.45
2019-02-03T03:27:42.734Z,961.48
2019-02-03T03:28:42.719Z,961.48
2019-02-03T03:29:42.704Z,961.48
2019-02-03T03:30:42.725Z,961.49
2019-02-03T03:31:42.674Z,961.52
2019-02-03T03:32:42.664Z,961.54
2019-02-03T03:33:42.645Z,961.53
2019-02-03T03:34:42.628Z,961.53
2019-02-03T03:35:42.619Z,961.56
2019-02-03T03:36:42.599Z,961.55
2019-02-03T03:37:42.584Z,961.61
2019-02-03T03:38:42.571Z,961.62
2019-02-03T03:39:42.556Z,961.59
2019-02-03T03:40:42.540Z,961.64
2019-02-03T03:41:42.525Z,961.68
2019-02-03T03:42:42.513Z,961.67
2019-02-03T03:43:42.496Z,961.72
2019-02-03T03:44:42.480Z,961.73
2019-02-03T03:45:42.466Z,961.71
2019-02-03T03:46:42.465Z,961.68
2019-02-03T03:47:42.436Z,961.67
2019-02-03T03:48:42.421Z,961.68
2019-02-03T03:49:42.405Z,961.68
2019-02-03T03:50:42.392Z,961.67
2019-02-03T03:51:42.377Z,961.70
2019-02-03T03:52:42.370Z,961.71
2019-02-03T03:53:42.348Z,961.73
2019-02-03T03:54:42.333Z,961.74
2019-02-03T03:55:42.341Z,961.73
2019-02-03T03:56:42.304Z,961.81
2019-02-03T03:57:42.289Z,961.84
2019-02-03T03:58:42.273Z,961.87
2019-02-03T03:59:42.257Z,961.86
2019-02-03T04:00:42.247Z,961.86
2019-02-03T04:01:42.227Z,961.89
2019-02-03T04:02:42.340Z,961.85
2019-02-03T04:03:42.200Z,961.86
2019-02-03T04:04:42.184Z,961.87
2019-02-03T04:05:42.167Z,961.87
2019-02-03T04:06:42.158Z,961.89
2019-02-03T04:07:42.139Z,961.93
2019-02-03T04:08:45.221Z,961.93
2019-02-03T04:09:42.109Z,961.95
2019-02-03T04:10:42.095Z,961.95
2019-02-03T04:11:42.079Z,961.97
2019-02-03T04:12:42.064Z,962.00
2019-02-03T04:13:42.050Z,961.97
2019-02-03T04:14:42.034Z,962.02
2019-02-03T04:15:42.020Z,962.03
2019-02-03T04:16:42.004Z,962.03
2019-02-03T04:17:41.998Z,962.06
2019-02-03T04:18:41.983Z,962.03
2019-02-03T04:19:41.960Z,962.07
2019-02-03T04:20:41.944Z,962.09
2019-02-03T04:21:41.949Z,962.08
2019-02-03T04:22:41.917Z,962.12
2019-02-03T04:23:41.900Z,962.17
2019-02-03T04:24:41.888Z,962.17
2019-02-03T04:25:41.873Z,962.16
2019-02-03T04:26:41.857Z,962.18
2019-02-03T04:27:41.843Z,962.19
2019-02-03T04:28:41.832Z,962.21
2019-02-03T04:29:41.813Z,962.19
2019-02-03T04:30:41.797Z,962.20
2019-02-03T04:31:41.780Z,962.23
2019-02-03T04:32:41.766Z,962.23
2019-02-03T04:33:41.754Z,962.27
2019-02-03T04:34:41.735Z,962.29
2019-02-03T04:35:41.834Z,962.31
2019-02-03T04:36:41.706Z,962.31
2019-02-03T04:37:41.701Z,962.36
2019-02-03T04:38:41.676Z,962.35
2019-02-03T04:39:41.660Z,962.35
2019-02-03T04:40:41.645Z,962.42
2019-02-03T04:41:41.638Z,962.37
2019-02-03T04:42:41.617Z,962.37
2019-02-03T04:43:41.602Z,962.43
2019-02-03T04:44:41.585Z,962.44
2019-02-03T04:45:41.570Z,962.43
2019-02-03T04:46:41.555Z,962.43
2019-02-03T04:47:41.540Z,962.48
2019-02-03T04:48:41.528Z,962.49
2019-02-03T04:49:41.509Z,962.48
2019-02-03T04:50:41.498Z,962.45
2019-02-03T04:51:41.480Z,962.48
2019-02-03T04:52:41.466Z,962.46
2019-02-03T04:53:41.454Z,962.49
2019-02-03T04:54:41.437Z,962.46
2019-02-03T04:55:41.420Z,962.49
2019-02-03T04:56:41.408Z,962.49
2019-02-03T04:57:41.390Z,962.48
2019-02-03T04:58:41.376Z,962.56
2019-02-03T04:59:41.359Z,962.56
2019-02-03T05:00:41.345Z,962.54
2019-02-03T05:01:41.334Z,962.51
2019-02-03T05:02:41.316Z,962.54
2019-02-03T05:03:41.300Z,962.52
2019-02-03T05:04:41.289Z,962.55
2019-02-03T05:05:41.269Z,962.54
2019-02-03T05:06:41.255Z,962.61
2019-02-03T05:07:41.236Z,962.56
2019-02-03T05:08:41.223Z,962.59
2019-02-03T05:09:41.210Z,962.63
2019-02-03T05:10:41.194Z,962.62
2019-02-03T05:11:41.178Z,962.64
2019-02-03T05:12:41.165Z,962.65
2019-02-03T05:13:41.149Z,962.67
2019-02-03T05:14:41.133Z,962.65
2019-02-03T05:15:41.118Z,962.69
2019-02-03T05:16:41.104Z,962.68
2019-02-03T05:17:41.089Z,962.69
2019-02-03T05:18:41.073Z,962.76
2019-02-03T05:19:41.057Z,962.74
2019-02-03T05:20:41.041Z,962.73
2019-02-03T05:21:41.027Z,962.75
2019-02-03T05:22:41.014Z,962.76
2019-02-03T05:23:40.996Z,962.79
2019-02-03T05:24:40.982Z,962.80
2019-02-03T05:25:40.970Z,962.84
2019-02-03T05:26:40.950Z,962.84
2019-02-03T05:27:40.934Z,962.85
2019-02-03T05:28:40.918Z,962.84
2019-02-03T05:29:40.903Z,962.88
2019-02-03T05:30:40.888Z,962.89
2019-02-03T05:31:40.873Z,962.89
2019-02-03T05:32:40.858Z,962.89
2019-02-03T05:33:40.843Z,962.90
2019-02-03T05:34:40.829Z,962.94
2019-02-03T05:35:40.811Z,962.95
2019-02-03T05:36:40.800Z,962.98
2019-02-03T05:37:40.787Z,962.99
2019-02-03T05:38:40.768Z,962.99
2019-02-03T05:39:40.751Z,963.00
2019-02-03T05:40:40.736Z,963.04
2019-02-03T05:41:40.722Z,963.06
2019-02-03T05:42:40.707Z,963.02
2019-02-03T05:43:40.691Z,963.05
2019-02-03T05:44:40.674Z,963.11
2019-02-03T05:45:40.661Z,963.10
2019-02-03T05:46:40.644Z,963.10
2019-02-03T05:47:40.627Z,963.13
2019-02-03T05:48:40.620Z,963.17
2019-02-03T05:49:40.599Z,963.21
2019-02-03T05:50:40.583Z,963.22
2019-02-03T05:51:40.568Z,963.24
2019-02-03T05:52:40.553Z,963.24
2019-02-03T05:53:40.537Z,963.26
2019-02-03T05:54:40.520Z,963.24
2019-02-03T05:55:40.504Z,963.31
2019-02-03T05:56:40.490Z,963.33
2019-02-03T05:57:40.474Z,963.34
2019-02-03T05:58:40.461Z,963.35
2019-02-03T05:59:40.449Z,963.37
2019-02-03T06:00:40.429Z,963.43
2019-02-03T06:01:40.413Z,963.41
2019-02-03T06:02:40.398Z,963.47
2019-02-03T06:03:40.382Z,963.45
2019-02-03T06:04:40.367Z,963.44
2019-02-03T06:05:40.351Z,963.45
2019-02-03T06:06:40.336Z,963.52
2019-02-03T06:07:40.328Z,963.52
2019-02-03T06:08:40.305Z,963.52
2019-02-03T06:09:40.294Z,963.55
2019-02-03T06:10:40.276Z,963.58
2019-02-03T06:11:40.264Z,963.58
2019-02-03T06:12:40.244Z,963.61
2019-02-03T06:13:40.228Z,963.64
2019-02-03T06:14:40.216Z,963.64
2019-02-03T06:15:40.199Z,963.68
2019-02-03T06:16:40.182Z,963.70
2019-02-03T06:17:40.173Z,963.74
2019-02-03T06:18:40.154Z,963.74
2019-02-03T06:19:40.135Z,963.77
2019-02-03T06:20:40.121Z,963.78
2019-02-03T06:21:40.107Z,963.82
2019-02-03T06:22:40.090Z,963.83
2019-02-03T06:23:40.074Z,963.85
2019-02-03T06:24:40.059Z,963.89
2019-02-03T06:25:40.048Z,963.89
2019-02-03T06:26:40.028Z,963.91
2019-02-03T06:27:40.117Z,963.98
2019-02-03T06:28:39.998Z,964.00
2019-02-03T06:29:39.982Z,963.98
2019-02-03T06:30:39.967Z,964.04
2019-02-03T06:31:39.951Z,964.07
2019-02-03T06:32:39.933Z,964.08
2019-02-03T06:33:39.920Z,964.08
2019-02-03T06:34:39.910Z,964.12
2019-02-03T06:35:39.892Z,964.15
2019-02-03T06:36:39.872Z,964.19
2019-02-03T06:37:39.858Z,964.17
2019-02-03T06:38:39.845Z,964.21
2019-02-03T06:39:48.122Z,964.19
2019-02-03T06:40:39.814Z,964.21
2019-02-03T06:41:39.796Z,964.33
2019-02-03T06:42:39.780Z,964.32
2019-02-03T06:43:39.763Z,964.36
2019-02-03T06:44:39.753Z,964.35
2019-02-03T06:45:39.732Z,964.38
2019-02-03T06:46:39.719Z,964.42
2019-02-03T06:47:39.743Z,964.43
2019-02-03T06:48:39.688Z,964.49
2019-02-03T06:49:39.672Z,964.53
2019-02-03T06:50:39.657Z,964.54
2019-02-03T06:51:39.641Z,964.55
2019-02-03T06:52:39.625Z,964.59
2019-02-03T06:53:40.166Z,964.64
2019-02-03T06:54:39.596Z,964.65
2019-02-03T06:55:39.579Z,964.69
2019-02-03T06:56:39.563Z,964.72
2019-02-03T06:57:39.550Z,964.70
2019-02-03T06:58:39.532Z,964.73
2019-02-03T06:59:50.054Z,964.73
2019-02-03T07:00:39.501Z,964.74
2019-02-03T07:01:39.489Z,964.78
2019-02-03T07:02:39.471Z,964.85
2019-02-03T07:03:39.456Z,964.86
2019-02-03T07:04:39.441Z,964.91
2019-02-03T07:05:39.425Z,964.93
2019-02-03T07:06:39.410Z,964.93
2019-02-03T07:07:39.394Z,964.96
2019-02-03T07:08:39.438Z,965.00
2019-02-03T07:09:39.368Z,965.02
2019-02-03T07:10:39.349Z,965.03
2019-02-03T07:11:39.330Z,965.08
2019-02-03T07:12:39.315Z,965.10
2019-02-03T07:13:39.302Z,965.14
2019-02-03T07:14:39.285Z,965.11
2019-02-03T07:15:39.269Z,965.16
2019-02-03T07:16:40.964Z,965.15
2019-02-03T07:17:39.238Z,965.22
2019-02-03T07:18:39.226Z,965.23
2019-02-03T07:19:39.207Z,965.26
2019-02-03T07:20:39.196Z,965.33
2019-02-03T07:21:39.179Z,965.32
2019-02-03T07:22:39.162Z,965.31
2019-02-03T07:23:39.145Z,965.37
2019-02-03T07:24:39.130Z,965.42
2019-02-03T07:25:39.115Z,965.42
2019-02-03T07:26:39.102Z,965.47
2019-02-03T07:27:39.083Z,965.48
2019-02-03T07:28:39.070Z,965.52
2019-02-03T07:29:39.054Z,965.56
2019-02-03T07:30:39.038Z,965.58
2019-02-03T07:31:39.023Z,965.61
2019-02-03T07:32:39.007Z,965.61
2019-02-03T07:33:38.994Z,965.65
2019-02-03T07:34:38.977Z,965.70
2019-02-03T07:35:38.961Z,965.67
2019-02-03T07:36:38.969Z,965.67
2019-02-03T07:37:38.932Z,965.72
2019-02-03T07:38:38.915Z,965.75
2019-02-03T07:39:38.898Z,965.75
2019-02-03T07:40:38.883Z,965.75
2019-02-03T07:41:38.866Z,965.74
2019-02-03T07:42:38.871Z,965.78
2019-02-03T07:43:38.835Z,965.77
2019-02-03T07:44:38.820Z,965.76
2019-02-03T07:45:38.807Z,965.84
2019-02-03T07:46:38.790Z,965.81
2019-02-03T07:47:38.773Z,965.83
2019-02-03T07:48:38.758Z,965.91
2019-02-03T07:49:38.744Z,965.88
2019-02-03T07:50:38.729Z,965.88
2019-02-03T07:51:38.713Z,965.92
2019-02-03T07:52:38.694Z,965.95
2019-02-03T07:53:38.681Z,965.97
2019-02-03T07:54:38.665Z,965.98
2019-02-03T07:55:38.647Z,966.01
2019-02-03T07:56:38.634Z,966.04
2019-02-03T07:57:38.618Z,966.07
2019-02-03T07:58:38.608Z,966.05
2019-02-03T07:59:38.584Z,966.09
2019-02-03T08:00:38.570Z,966.04
2019-02-03T08:01:38.553Z,966.10
2019-02-03T08:02:38.541Z,966.10
2019-02-03T08:03:38.522Z,966.10
2019-02-03T08:04:38.507Z,966.14
2019-02-03T08:05:38.490Z,966.15
2019-02-03T08:06:38.476Z,966.16
2019-02-03T08:07:38.458Z,966.19
2019-02-03T08:08:38.445Z,966.21
2019-02-03T08:09:38.428Z,966.22
2019-02-03T08:10:38.413Z,966.29
2019-02-03T08:11:38.395Z,966.32
2019-02-03T08:12:38.379Z,966.31
2019-02-03T08:13:38.366Z,966.35
2019-02-03T08:14:38.350Z,966.44
2019-02-03T08:15:38.333Z,966.40
2019-02-03T08:16:38.316Z,966.43
2019-02-03T08:17:40.621Z,966.46
2019-02-03T08:18:38.285Z,966.48
2019-02-03T08:19:38.269Z,966.51
2019-02-03T08:20:38.255Z,966.56
2019-02-03T08:21:38.242Z,966.57
2019-02-03T08:22:38.222Z,966.60
2019-02-03T08:23:38.206Z,966.61
2019-02-03T08:24:38.195Z,966.65
2019-02-03T08:25:38.207Z,966.66
2019-02-03T08:26:38.161Z,966.68
2019-02-03T08:27:38.145Z,966.71
2019-02-03T08:28:38.129Z,966.71
2019-02-03T08:29:38.113Z,966.78
2019-02-03T08:30:38.097Z,966.76
2019-02-03T08:31:38.081Z,966.84
2019-02-03T08:32:38.066Z,966.84
2019-02-03T08:33:38.048Z,966.91
2019-02-03T08:34:38.034Z,966.93
2019-02-03T08:35:38.020Z,966.93
2019-02-03T08:36:38.000Z,966.96
2019-02-03T08:37:37.985Z,966.95
2019-02-03T08:38:37.971Z,966.98
2019-02-03T08:39:37.955Z,966.99
2019-02-03T08:40:37.945Z,966.99
2019-02-03T08:41:37.924Z,967.02
2019-02-03T08:42:37.908Z,967.00
2019-02-03T08:43:37.891Z,967.01
2019-02-03T08:44:37.874Z,967.04
2019-02-03T08:45:37.862Z,967.07
2019-02-03T08:46:37.846Z,967.12
2019-02-03T08:47:37.825Z,967.14
2019-02-03T08:48:37.813Z,967.12
2019-02-03T08:49:37.796Z,967.18
2019-02-03T08:50:37.780Z,967.21
2019-02-03T08:51:37.764Z,967.25
2019-02-03T08:52:37.748Z,967.28
2019-02-03T08:53:37.734Z,967.29
2019-02-03T08:54:50.687Z,967.37
2019-02-03T08:55:37.700Z,967.36
2019-02-03T08:56:37.684Z,967.41
2019-02-03T08:57:37.673Z,967.40
2019-02-03T08:58:37.653Z,967.43
2019-02-03T08:59:37.636Z,967.45
2019-02-03T09:00:37.621Z,967.45
2019-02-03T09:01:37.605Z,967.49
2019-02-03T09:02:37.591Z,967.50
2019-02-03T09:03:37.571Z,967.52
2019-02-03T09:04:37.558Z,967.57
2019-02-03T09:05:37.541Z,967.57
2019-02-03T09:06:37.529Z,967.62
2019-02-03T09:07:37.510Z,967.59
2019-02-03T09:08:37.492Z,967.60
2019-02-03T09:09:37.477Z,967.61
2019-02-03T09:10:47.772Z,967.63
2019-02-03T09:11:37.444Z,967.68
2019-02-03T09:12:37.430Z,967.72
2019-02-03T09:13:37.415Z,967.71
2019-02-03T09:14:37.400Z,967.73
2019-02-03T09:15:37.571Z,967.71
2019-02-03T09:16:37.367Z,967.75
2019-02-03T09:17:37.350Z,967.78
2019-02-03T09:18:37.336Z,967.79
2019-02-03T09:19:37.317Z,967.83
2019-02-03T09:20:37.302Z,967.83
2019-02-03T09:21:37.289Z,967.84
2019-02-03T09:22:40.052Z,967.86
2019-02-03T09:23:37.256Z,967.79
2019-02-03T09:24:37.240Z,967.86
2019-02-03T09:25:37.225Z,967.90
2019-02-03T09:26:37.209Z,967.91
2019-02-03T09:27:37.195Z,967.95
2019-02-03T09:28:37.176Z,967.94
2019-02-03T09:29:37.160Z,967.95
2019-02-03T09:30:37.145Z,967.96
2019-02-03T09:31:37.127Z,968.01
2019-02-03T09:32:37.113Z,968.01
2019-02-03T09:33:37.096Z,968.04
2019-02-03T09:34:37.082Z,968.04
2019-02-03T09:35:37.063Z,968.03
2019-02-03T09:36:37.052Z,968.01
2019-02-03T09:37:37.032Z,968.11
2019-02-03T09:38:37.018Z,968.10
2019-02-03T09:39:37.120Z,968.13
2019-02-03T09:40:36.983Z,968.13
2019-02-03T09:41:36.970Z,968.14
2019-02-03T09:42:36.952Z,968.16
2019-02-03T09:43:36.940Z,968.20
2019-02-03T09:44:36.921Z,968.24
2019-02-03T09:45:36.905Z,968.27
2019-02-03T09:46:36.889Z,968.28
2019-02-03T09:47:36.873Z,968.31
2019-02-03T09:48:36.857Z,968.32
2019-02-03T09:49:36.842Z,968.36
2019-02-03T09:50:36.823Z,968.36
2019-02-03T09:51:36.811Z,968.37
2019-02-03T09:52:36.794Z,968.39
2019-02-03T09:53:36.773Z,968.42
2019-02-03T09:54:36.759Z,968.44
2019-02-03T09:55:36.743Z,968.47
2019-02-03T09:56:36.725Z,968.51
2019-02-03T09:57:36.710Z,968.54
2019-02-03T09:58:36.694Z,968.53
2019-02-03T09:59:36.677Z,968.58
2019-02-03T10:00:36.661Z,968.62
2019-02-03T10:01:36.645Z,968.62
2019-02-03T10:02:36.629Z,968.69
2019-02-03T10:03:36.612Z,968.71
2019-02-03T10:04:36.599Z,968.69
2019-02-03T10:05:37.296Z,968.75
2019-02-03T10:06:36.571Z,968.73
2019-02-03T10:07:36.546Z,968.80
2019-02-03T10:08:40.738Z,968.81
2019-02-03T10:09:36.514Z,968.85
2019-02-03T10:10:36.497Z,968.88
2019-02-03T10:11:36.483Z,968.86
2019-02-03T10:12:36.464Z,968.85
2019-02-03T10:13:36.448Z,968.80
2019-02-03T10:14:36.430Z,968.87
2019-02-03T10:15:36.414Z,968.90
2019-02-03T10:16:36.398Z,968.89
2019-02-03T10:17:36.385Z,968.92
2019-02-03T10:18:36.366Z,968.88
2019-02-03T10:19:36.348Z,968.97
2019-02-03T10:20:36.330Z,968.95
2019-02-03T10:21:36.317Z,968.99
2019-02-03T10:22:36.300Z,968.98
2019-02-03T10:23:36.283Z,968.98
2019-02-03T10:24:42.103Z,969.01
2019-02-03T10:25:36.249Z,969.08
2019-02-03T10:26:36.237Z,969.12
2019-02-03T10:27:36.218Z,969.10
2019-02-03T10:28:36.200Z,969.09
2019-02-03T10:29:36.187Z,969.18
2019-02-03T10:30:36.170Z,969.17
2019-02-03T10:31:36.154Z,969.18
2019-02-03T10:32:36.135Z,969.22
2019-02-03T10:33:36.121Z,969.24
2019-02-03T10:34:36.106Z,969.23
2019-02-03T10:35:36.089Z,969.20
2019-02-03T10:36:36.075Z,969.24
2019-02-03T10:37:36.068Z,969.28
2019-02-03T10:38:36.046Z,969.28
2019-02-03T10:39:36.048Z,969.25
2019-02-03T10:40:36.023Z,969.29
2019-02-03T10:41:35.993Z,969.28
2019-02-03T10:42:35.977Z,969.31
2019-02-03T10:43:35.959Z,969.35
2019-02-03T10:44:35.949Z,969.36
2019-02-03T10:45:35.929Z,969.37
2019-02-03T10:46:35.912Z,969.39
2019-02-03T10:47:35.897Z,969.39
2019-02-03T10:48:35.882Z,969.43
2019-02-03T10:49:35.869Z,969.44
2019-02-03T10:50:35.853Z,969.47
2019-02-03T10:51:35.836Z,969.48
2019-02-03T10:52:36.002Z,969.48
2019-02-03T10:53:35.801Z,969.48
2019-02-03T10:54:35.787Z,969.47
2019-02-03T10:55:35.772Z,969.54
2019-02-03T10:56:35.759Z,969.57
2019-02-03T10:57:35.739Z,969.57
2019-02-03T10:58:35.722Z,969.55
2019-02-03T10:59:35.707Z,969.56
2019-02-03T11:00:35.690Z,969.56
2019-02-03T11:01:35.675Z,969.59
2019-02-03T11:02:35.661Z,969.61
2019-02-03T11:03:35.646Z,969.59
2019-02-03T11:04:35.627Z,969.60
2019-02-03T11:05:35.612Z,969.62
2019-02-03T11:06:35.596Z,969.65
2019-02-03T11:07:35.582Z,969.64
2019-02-03T11:08:35.564Z,969.67
2019-02-03T11:09:35.551Z,969.68
2019-02-03T11:10:35.534Z,969.68
2019-02-03T11:11:36.995Z,969.69
2019-02-03T11:12:35.504Z,969.70
2019-02-03T11:13:35.487Z,969.74
2019-02-03T11:14:35.563Z,969.75
2019-02-03T11:15:35.457Z,969.75
2019-02-03T11:16:35.441Z,969.77
2019-02-03T11:17:35.424Z,969.82
2019-02-03T11:18:35.410Z,969.82
2019-02-03T11:19:35.392Z,969.84
2019-02-03T11:20:35.381Z,969.86
2019-02-03T11:21:35.364Z,969.86
2019-02-03T11:22:35.348Z,969.90
2019-02-03T11:23:35.333Z,969.94
2019-02-03T11:24:35.316Z,969.91
2019-02-03T11:25:35.300Z,969.95
2019-02-03T11:26:35.289Z,969.92
2019-02-03T11:27:35.269Z,969.96
2019-02-03T11:28:35.255Z,969.94
2019-02-03T11:29:35.254Z,969.96
2019-02-03T11:30:35.228Z,970.05
2019-02-03T11:31:35.208Z,970.04
2019-02-03T11:32:35.193Z,970.09
2019-02-03T11:33:35.177Z,970.07
2019-02-03T11:34:35.162Z,970.12
2019-02-03T11:35:35.146Z,970.12
2019-02-03T11:36:35.130Z,970.15
2019-02-03T11:37:35.113Z,970.16
2019-02-03T11:38:35.099Z,970.18
2019-02-03T11:39:35.081Z,970.22
2019-02-03T11:40:35.067Z,970.23
2019-02-03T11:41:35.052Z,970.26
2019-02-03T11:42:35.041Z,970.27
2019-02-03T11:43:35.027Z,970.29
2019-02-03T11:44:35.012Z,970.27
2019-02-03T11:45:34.989Z,970.30
2019-02-03T11:46:34.974Z,970.32
2019-02-03T11:47:34.956Z,970.32
2019-02-03T11:48:34.942Z,970.36
2019-02-03T11:49:34.931Z,970.36
2019-02-03T11:50:34.911Z,970.37
2019-02-03T11:51:34.894Z,970.42
2019-02-03T11:52:34.880Z,970.42
2019-02-03T11:53:34.867Z,970.40
2019-02-03T11:54:34.854Z,970.44
2019-02-03T11:55:34.832Z,970.48
2019-02-03T11:56:34.820Z,970.49
2019-02-03T11:57:34.805Z,970.54
2019-02-03T11:58:34.787Z,970.56
2019-02-03T11:59:34.772Z,970.51
2019-02-03T12:00:34.753Z,970.55
2019-02-03T12:01:34.741Z,970.50
2019-02-03T12:02:41.674Z,970.59
2019-02-03T12:03:34.710Z,970.55
2019-02-03T12:04:34.692Z,970.56
2019-02-03T12:05:34.820Z,970.55
2019-02-03T12:06:34.662Z,970.59
2019-02-03T12:07:34.643Z,970.61
2019-02-03T12:08:34.637Z,970.57
2019-02-03T12:09:34.620Z,970.57
2019-02-03T12:10:34.602Z,970.62
2019-02-03T12:11:34.722Z,970.56
2019-02-03T12:12:34.566Z,970.62
2019-02-03T12:13:34.550Z,970.65
2019-02-03T12:14:34.532Z,970.60
2019-02-03T12:15:34.518Z,970.74
2019-02-03T12:16:34.507Z,970.71
2019-02-03T12:17:34.484Z,970.69
2019-02-03T12:18:34.469Z,970.80
2019-02-03T12:19:34.453Z,970.66
2019-02-03T12:20:34.437Z,970.77
2019-02-03T12:21:34.421Z,970.85
2019-02-03T12:22:34.404Z,970.79
2019-02-03T12:23:34.388Z,970.80
2019-02-03T12:24:34.372Z,970.72
2019-02-03T12:25:34.356Z,970.78
2019-02-03T12:26:36.477Z,970.84
2019-02-03T12:27:34.323Z,970.85
2019-02-03T12:28:34.307Z,970.88